sensor_id;sensor_type;location;lat;lon;timestamp;P1;durP1;ratioP1;P2;durP2;ratioP2
74328;SDS011;62745;51.060;13.786;2023-12-20T00:00:38;5.03;;;2.63;;
74328;SDS011;62745;51.060;13.786;2023-12-20T00:03:03;5.43;;;3.05;;
74328;SDS011;62745;51.060;13.786;2023-12-20T00:05:29;5.55;;;2.42;;
74328;SDS011;62745;51.060;13.786;2023-12-20T00:07:57;7.32;;;3.15;;
74328;SDS011;62745;51.060;13.786;2023-12-20T00:10:22;6.22;;;3.00;;
74328;SDS011;62745;51.060;13.786;2023-12-20T00:12:47;5.47;;;2.60;;
74328;SDS011;62745;51.060;13.786;2023-12-20T00:15:12;5.83;;;2.63;;
74328;SDS011;62745;51.060;13.786;2023-12-20T00:17:38;5.72;;;2.92;;
74328;SDS011;62745;51.060;13.786;2023-12-20T00:20:03;7.53;;;2.60;;
74328;SDS011;62745;51.060;13.786;2023-12-20T00:22:29;5.55;;;2.83;;
74328;SDS011;62745;51.060;13.786;2023-12-20T00:24:54;5.03;;;2.70;;
74328;SDS011;62745;51.060;13.786;2023-12-20T00:27:19;5.40;;;2.80;;
74328;SDS011;62745;51.060;13.786;2023-12-20T00:29:44;5.90;;;2.37;;
74328;SDS011;62745;51.060;13.786;2023-12-20T00:32:13;5.10;;;2.53;;
74328;SDS011;62745;51.060;13.786;2023-12-20T00:34:38;5.23;;;2.50;;
74328;SDS011;62745;51.060;13.786;2023-12-20T00:37:03;5.00;;;2.60;;
74328;SDS011;62745;51.060;13.786;2023-12-20T00:39:28;6.72;;;2.05;;
74328;SDS011;62745;51.060;13.786;2023-12-20T00:41:54;3.43;;;1.70;;
74328;SDS011;62745;51.060;13.786;2023-12-20T00:44:19;4.97;;;2.40;;
74328;SDS011;62745;51.060;13.786;2023-12-20T00:46:44;5.47;;;2.03;;
74328;SDS011;62745;51.060;13.786;2023-12-20T00:49:09;4.00;;;2.03;;
74328;SDS011;62745;51.060;13.786;2023-12-20T00:51:35;4.77;;;1.93;;
74328;SDS011;62745;51.060;13.786;2023-12-20T00:54:00;4.33;;;1.73;;
74328;SDS011;62745;51.060;13.786;2023-12-20T00:56:25;3.60;;;1.77;;
74328;SDS011;62745;51.060;13.786;2023-12-20T00:58:50;4.87;;;1.93;;
74328;SDS011;62745;51.060;13.786;2023-12-20T01:01:16;3.83;;;1.80;;
74328;SDS011;62745;51.060;13.786;2023-12-20T01:03:41;3.67;;;1.73;;
74328;SDS011;62745;51.060;13.786;2023-12-20T01:06:06;4.00;;;1.90;;
74328;SDS011;62745;51.060;13.786;2023-12-20T01:08:31;4.63;;;2.00;;
74328;SDS011;62745;51.060;13.786;2023-12-20T01:10:57;3.63;;;1.70;;
74328;SDS011;62745;51.060;13.786;2023-12-20T01:13:22;3.37;;;1.63;;
74328;SDS011;62745;51.060;13.786;2023-12-20T01:15:47;3.60;;;1.70;;
74328;SDS011;62745;51.060;13.786;2023-12-20T01:18:13;4.20;;;1.90;;
74328;SDS011;62745;51.060;13.786;2023-12-20T01:20:38;4.15;;;1.67;;
74328;SDS011;62745;51.060;13.786;2023-12-20T01:23:04;2.97;;;1.30;;
74328;SDS011;62745;51.060;13.786;2023-12-20T01:25:29;3.70;;;1.80;;
74328;SDS011;62745;51.060;13.786;2023-12-20T01:27:54;3.53;;;1.63;;
74328;SDS011;62745;51.060;13.786;2023-12-20T01:30:19;3.83;;;1.67;;
74328;SDS011;62745;51.060;13.786;2023-12-20T01:32:45;3.10;;;1.60;;
74328;SDS011;62745;51.060;13.786;2023-12-20T01:35:10;4.23;;;1.83;;
74328;SDS011;62745;51.060;13.786;2023-12-20T01:37:37;4.65;;;1.67;;
74328;SDS011;62745;51.060;13.786;2023-12-20T01:40:02;3.75;;;1.52;;
74328;SDS011;62745;51.060;13.786;2023-12-20T01:42:28;2.80;;;1.30;;
74328;SDS011;62745;51.060;13.786;2023-12-20T01:44:54;2.95;;;1.33;;
74328;SDS011;62745;51.060;13.786;2023-12-20T01:47:19;3.27;;;1.53;;
74328;SDS011;62745;51.060;13.786;2023-12-20T01:49:45;4.03;;;1.63;;
74328;SDS011;62745;51.060;13.786;2023-12-20T01:52:10;3.20;;;1.40;;
74328;SDS011;62745;51.060;13.786;2023-12-20T01:54:36;3.30;;;1.40;;
74328;SDS011;62745;51.060;13.786;2023-12-20T01:57:02;3.47;;;1.42;;
74328;SDS011;62745;51.060;13.786;2023-12-20T01:59:29;3.83;;;1.20;;
74328;SDS011;62745;51.060;13.786;2023-12-20T02:01:55;3.90;;;1.30;;
74328;SDS011;62745;51.060;13.786;2023-12-20T02:04:20;3.00;;;1.30;;
74328;SDS011;62745;51.060;13.786;2023-12-20T02:06:46;2.45;;;1.23;;
74328;SDS011;62745;51.060;13.786;2023-12-20T02:09:12;2.45;;;0.93;;
74328;SDS011;62745;51.060;13.786;2023-12-20T02:11:37;2.95;;;1.40;;
74328;SDS011;62745;51.060;13.786;2023-12-20T02:14:03;3.65;;;1.27;;
74328;SDS011;62745;51.060;13.786;2023-12-20T02:16:28;2.47;;;1.20;;
74328;SDS011;62745;51.060;13.786;2023-12-20T02:18:53;2.40;;;1.10;;
74328;SDS011;62745;51.060;13.786;2023-12-20T02:21:24;2.55;;;1.13;;
74328;SDS011;62745;51.060;13.786;2023-12-20T02:23:50;3.50;;;1.58;;
74328;SDS011;62745;51.060;13.786;2023-12-20T02:26:15;2.47;;;1.20;;
74328;SDS011;62745;51.060;13.786;2023-12-20T02:28:41;2.13;;;1.00;;
74328;SDS011;62745;51.060;13.786;2023-12-20T02:31:06;2.05;;;0.93;;
74328;SDS011;62745;51.060;13.786;2023-12-20T02:33:32;2.45;;;1.00;;
74328;SDS011;62745;51.060;13.786;2023-12-20T02:35:57;2.13;;;0.90;;
74328;SDS011;62745;51.060;13.786;2023-12-20T02:38:22;2.13;;;1.00;;
74328;SDS011;62745;51.060;13.786;2023-12-20T02:40:48;2.03;;;1.00;;
74328;SDS011;62745;51.060;13.786;2023-12-20T02:43:13;1.80;;;0.90;;
74328;SDS011;62745;51.060;13.786;2023-12-20T02:45:39;2.47;;;0.90;;
74328;SDS011;62745;51.060;13.786;2023-12-20T02:48:04;2.20;;;0.90;;
74328;SDS011;62745;51.060;13.786;2023-12-20T02:50:30;1.50;;;0.70;;
74328;SDS011;62745;51.060;13.786;2023-12-20T02:52:55;1.93;;;0.90;;
74328;SDS011;62745;51.060;13.786;2023-12-20T02:55:20;2.03;;;0.90;;
74328;SDS011;62745;51.060;13.786;2023-12-20T02:57:46;1.43;;;0.73;;
74328;SDS011;62745;51.060;13.786;2023-12-20T03:00:11;2.40;;;1.00;;
74328;SDS011;62745;51.060;13.786;2023-12-20T03:02:36;1.85;;;0.95;;
74328;SDS011;62745;51.060;13.786;2023-12-20T03:05:02;1.92;;;0.90;;
74328;SDS011;62745;51.060;13.786;2023-12-20T03:07:28;1.92;;;0.85;;
74328;SDS011;62745;51.060;13.786;2023-12-20T03:09:53;1.83;;;1.10;;
74328;SDS011;62745;51.060;13.786;2023-12-20T03:12:18;2.40;;;1.07;;
74328;SDS011;62745;51.060;13.786;2023-12-20T03:14:44;2.03;;;0.90;;
74328;SDS011;62745;51.060;13.786;2023-12-20T03:17:09;2.05;;;1.00;;
74328;SDS011;62745;51.060;13.786;2023-12-20T03:19:34;2.30;;;1.00;;
74328;SDS011;62745;51.060;13.786;2023-12-20T03:22:00;2.03;;;0.90;;
74328;SDS011;62745;51.060;13.786;2023-12-20T03:24:26;1.80;;;0.90;;
74328;SDS011;62745;51.060;13.786;2023-12-20T03:26:51;2.15;;;1.00;;
74328;SDS011;62745;51.060;13.786;2023-12-20T03:29:16;1.27;;;0.60;;
74328;SDS011;62745;51.060;13.786;2023-12-20T03:31:41;3.53;;;1.10;;
74328;SDS011;62745;51.060;13.786;2023-12-20T03:34:07;2.27;;;1.00;;
74328;SDS011;62745;51.060;13.786;2023-12-20T03:36:32;1.80;;;0.90;;
74328;SDS011;62745;51.060;13.786;2023-12-20T03:38:57;2.47;;;1.20;;
74328;SDS011;62745;51.060;13.786;2023-12-20T03:41:22;1.83;;;0.83;;
74328;SDS011;62745;51.060;13.786;2023-12-20T03:43:48;1.67;;;0.87;;
74328;SDS011;62745;51.060;13.786;2023-12-20T03:46:13;2.07;;;0.90;;
74328;SDS011;62745;51.060;13.786;2023-12-20T03:48:38;1.83;;;0.90;;
74328;SDS011;62745;51.060;13.786;2023-12-20T03:51:03;1.57;;;0.77;;
74328;SDS011;62745;51.060;13.786;2023-12-20T03:53:29;2.28;;;0.95;;
74328;SDS011;62745;51.060;13.786;2023-12-20T03:55:54;2.10;;;1.00;;
74328;SDS011;62745;51.060;13.786;2023-12-20T03:58:19;2.63;;;1.03;;
74328;SDS011;62745;51.060;13.786;2023-12-20T04:00:45;1.97;;;0.90;;
74328;SDS011;62745;51.060;13.786;2023-12-20T04:03:10;2.05;;;0.80;;
74328;SDS011;62745;51.060;13.786;2023-12-20T04:05:38;2.00;;;1.00;;
74328;SDS011;62745;51.060;13.786;2023-12-20T04:08:03;2.05;;;0.98;;
74328;SDS011;62745;51.060;13.786;2023-12-20T04:10:29;3.08;;;1.25;;
74328;SDS011;62745;51.060;13.786;2023-12-20T04:12:54;2.03;;;0.88;;
74328;SDS011;62745;51.060;13.786;2023-12-20T04:15:20;2.13;;;0.90;;
74328;SDS011;62745;51.060;13.786;2023-12-20T04:17:45;1.80;;;0.90;;
74328;SDS011;62745;51.060;13.786;2023-12-20T04:20:10;2.13;;;0.90;;
74328;SDS011;62745;51.060;13.786;2023-12-20T04:22:36;2.33;;;1.00;;
74328;SDS011;62745;51.060;13.786;2023-12-20T04:25:01;1.80;;;0.80;;
74328;SDS011;62745;51.060;13.786;2023-12-20T04:27:27;2.05;;;0.98;;
74328;SDS011;62745;51.060;13.786;2023-12-20T04:29:52;3.20;;;1.40;;
74328;SDS011;62745;51.060;13.786;2023-12-20T04:32:17;3.03;;;0.87;;
74328;SDS011;62745;51.060;13.786;2023-12-20T04:34:42;1.90;;;1.00;;
74328;SDS011;62745;51.060;13.786;2023-12-20T04:37:08;2.00;;;0.90;;
74328;SDS011;62745;51.060;13.786;2023-12-20T04:39:33;1.57;;;0.83;;
74328;SDS011;62745;51.060;13.786;2023-12-20T04:41:58;2.07;;;0.83;;
74328;SDS011;62745;51.060;13.786;2023-12-20T04:44:23;2.37;;;1.00;;
74328;SDS011;62745;51.060;13.786;2023-12-20T04:46:49;2.63;;;1.17;;
74328;SDS011;62745;51.060;13.786;2023-12-20T04:49:14;1.37;;;0.77;;
74328;SDS011;62745;51.060;13.786;2023-12-20T04:51:39;2.87;;;1.20;;
74328;SDS011;62745;51.060;13.786;2023-12-20T04:54:04;2.03;;;0.90;;
74328;SDS011;62745;51.060;13.786;2023-12-20T04:56:30;2.77;;;1.30;;
74328;SDS011;62745;51.060;13.786;2023-12-20T04:58:55;2.10;;;1.00;;
74328;SDS011;62745;51.060;13.786;2023-12-20T05:01:20;1.77;;;0.83;;
74328;SDS011;62745;51.060;13.786;2023-12-20T05:03:46;2.38;;;1.10;;
74328;SDS011;62745;51.060;13.786;2023-12-20T05:06:11;1.73;;;0.93;;
74328;SDS011;62745;51.060;13.786;2023-12-20T05:08:37;1.90;;;0.80;;
74328;SDS011;62745;51.060;13.786;2023-12-20T05:11:02;1.80;;;0.77;;
74328;SDS011;62745;51.060;13.786;2023-12-20T05:13:28;2.08;;;0.98;;
74328;SDS011;62745;51.060;13.786;2023-12-20T05:15:53;1.93;;;0.77;;
74328;SDS011;62745;51.060;13.786;2023-12-20T05:18:18;3.00;;;1.40;;
74328;SDS011;62745;51.060;13.786;2023-12-20T05:20:43;2.83;;;0.90;;
74328;SDS011;62745;51.060;13.786;2023-12-20T05:23:09;2.50;;;1.20;;
74328;SDS011;62745;51.060;13.786;2023-12-20T05:25:34;2.50;;;1.10;;
74328;SDS011;62745;51.060;13.786;2023-12-20T05:27:59;2.50;;;1.13;;
74328;SDS011;62745;51.060;13.786;2023-12-20T05:30:25;3.37;;;1.20;;
74328;SDS011;62745;51.060;13.786;2023-12-20T05:32:50;2.67;;;1.20;;
74328;SDS011;62745;51.060;13.786;2023-12-20T05:35:16;3.30;;;1.40;;
74328;SDS011;62745;51.060;13.786;2023-12-20T05:37:42;2.65;;;1.20;;
74328;SDS011;62745;51.060;13.786;2023-12-20T05:40:07;2.50;;;1.20;;
74328;SDS011;62745;51.060;13.786;2023-12-20T05:42:36;5.03;;;1.92;;
74328;SDS011;62745;51.060;13.786;2023-12-20T05:45:02;3.67;;;1.45;;
74328;SDS011;62745;51.060;13.786;2023-12-20T05:47:28;3.88;;;1.30;;
74328;SDS011;62745;51.060;13.786;2023-12-20T05:49:53;2.43;;;1.03;;
74328;SDS011;62745;51.060;13.786;2023-12-20T05:52:18;2.50;;;1.20;;
74328;SDS011;62745;51.060;13.786;2023-12-20T05:54:43;3.13;;;1.40;;
74328;SDS011;62745;51.060;13.786;2023-12-20T05:57:09;2.93;;;1.20;;
74328;SDS011;62745;51.060;13.786;2023-12-20T05:59:34;2.53;;;1.17;;
74328;SDS011;62745;51.060;13.786;2023-12-20T06:01:59;3.00;;;1.27;;
74328;SDS011;62745;51.060;13.786;2023-12-20T06:04:24;3.13;;;1.10;;
74328;SDS011;62745;51.060;13.786;2023-12-20T06:06:50;3.33;;;1.17;;
74328;SDS011;62745;51.060;13.786;2023-12-20T06:09:15;2.93;;;1.10;;
74328;SDS011;62745;51.060;13.786;2023-12-20T06:11:40;2.53;;;1.00;;
74328;SDS011;62745;51.060;13.786;2023-12-20T06:14:05;2.42;;;1.00;;
74328;SDS011;62745;51.060;13.786;2023-12-20T06:16:31;3.80;;;1.30;;
74328;SDS011;62745;51.060;13.786;2023-12-20T06:18:56;2.60;;;1.10;;
74328;SDS011;62745;51.060;13.786;2023-12-20T06:21:21;4.40;;;1.23;;
74328;SDS011;62745;51.060;13.786;2023-12-20T06:23:47;2.47;;;1.10;;
74328;SDS011;62745;51.060;13.786;2023-12-20T06:26:12;3.40;;;1.50;;
74328;SDS011;62745;51.060;13.786;2023-12-20T06:28:37;2.77;;;1.20;;
74328;SDS011;62745;51.060;13.786;2023-12-20T06:31:03;3.00;;;1.10;;
74328;SDS011;62745;51.060;13.786;2023-12-20T06:33:28;2.50;;;1.23;;
74328;SDS011;62745;51.060;13.786;2023-12-20T06:35:55;3.83;;;1.60;;
74328;SDS011;62745;51.060;13.786;2023-12-20T06:38:21;2.70;;;1.20;;
74328;SDS011;62745;51.060;13.786;2023-12-20T06:40:46;2.87;;;1.20;;
74328;SDS011;62745;51.060;13.786;2023-12-20T06:43:12;3.63;;;1.50;;
74328;SDS011;62745;51.060;13.786;2023-12-20T06:45:38;5.18;;;1.95;;
74328;SDS011;62745;51.060;13.786;2023-12-20T06:48:03;4.57;;;1.93;;
74328;SDS011;62745;51.060;13.786;2023-12-20T06:50:29;3.45;;;1.83;;
74328;SDS011;62745;51.060;13.786;2023-12-20T06:52:54;6.83;;;2.40;;
74328;SDS011;62745;51.060;13.786;2023-12-20T06:55:19;4.17;;;2.00;;
74328;SDS011;62745;51.060;13.786;2023-12-20T06:57:44;4.13;;;2.03;;
74328;SDS011;62745;51.060;13.786;2023-12-20T07:00:10;6.30;;;2.63;;
74328;SDS011;62745;51.060;13.786;2023-12-20T07:02:36;4.50;;;2.25;;
74328;SDS011;62745;51.060;13.786;2023-12-20T07:05:01;5.73;;;2.67;;
74328;SDS011;62745;51.060;13.786;2023-12-20T07:07:27;6.03;;;2.60;;
74328;SDS011;62745;51.060;13.786;2023-12-20T07:09:52;4.50;;;2.20;;
74328;SDS011;62745;51.060;13.786;2023-12-20T07:12:18;5.03;;;2.50;;
74328;SDS011;62745;51.060;13.786;2023-12-20T07:14:46;5.68;;;2.78;;
74328;SDS011;62745;51.060;13.786;2023-12-20T07:17:11;7.75;;;2.63;;
74328;SDS011;62745;51.060;13.786;2023-12-20T07:19:39;6.13;;;2.40;;
74328;SDS011;62745;51.060;13.786;2023-12-20T07:22:05;5.47;;;2.67;;
74328;SDS011;62745;51.060;13.786;2023-12-20T07:24:31;6.25;;;2.75;;
74328;SDS011;62745;51.060;13.786;2023-12-20T07:26:56;5.57;;;3.00;;
74328;SDS011;62745;51.060;13.786;2023-12-20T07:29:21;4.82;;;2.42;;
74328;SDS011;62745;51.060;13.786;2023-12-20T07:31:47;5.57;;;2.90;;
74328;SDS011;62745;51.060;13.786;2023-12-20T07:34:12;4.73;;;2.73;;
74328;SDS011;62745;51.060;13.786;2023-12-20T07:36:37;6.83;;;3.50;;
74328;SDS011;62745;51.060;13.786;2023-12-20T07:39:02;4.33;;;2.67;;
74328;SDS011;62745;51.060;13.786;2023-12-20T07:41:28;5.30;;;2.83;;
74328;SDS011;62745;51.060;13.786;2023-12-20T07:43:53;5.68;;;2.53;;
74328;SDS011;62745;51.060;13.786;2023-12-20T07:46:19;5.07;;;2.38;;
74328;SDS011;62745;51.060;13.786;2023-12-20T07:48:47;4.50;;;2.40;;
74328;SDS011;62745;51.060;13.786;2023-12-20T07:51:12;5.20;;;2.27;;
74328;SDS011;62745;51.060;13.786;2023-12-20T07:53:38;5.13;;;2.40;;
74328;SDS011;62745;51.060;13.786;2023-12-20T07:56:12;7.20;;;2.15;;
74328;SDS011;62745;51.060;13.786;2023-12-20T07:58:39;3.90;;;2.00;;
74328;SDS011;62745;51.060;13.786;2023-12-20T08:01:04;4.67;;;1.97;;
74328;SDS011;62745;51.060;13.786;2023-12-20T08:03:29;4.03;;;2.43;;
74328;SDS011;62745;51.060;13.786;2023-12-20T08:05:54;4.03;;;1.90;;
74328;SDS011;62745;51.060;13.786;2023-12-20T08:08:21;4.97;;;2.35;;
74328;SDS011;62745;51.060;13.786;2023-12-20T08:10:46;4.00;;;2.00;;
74328;SDS011;62745;51.060;13.786;2023-12-20T08:13:12;4.57;;;2.50;;
74328;SDS011;62745;51.060;13.786;2023-12-20T08:15:37;4.30;;;2.17;;
74328;SDS011;62745;51.060;13.786;2023-12-20T08:18:02;4.88;;;2.05;;
74328;SDS011;62745;51.060;13.786;2023-12-20T08:20:28;4.10;;;1.67;;
74328;SDS011;62745;51.060;13.786;2023-12-20T08:22:53;4.30;;;1.70;;
74328;SDS011;62745;51.060;13.786;2023-12-20T08:25:19;2.97;;;1.47;;
74328;SDS011;62745;51.060;13.786;2023-12-20T08:27:44;4.50;;;1.42;;
74328;SDS011;62745;51.060;13.786;2023-12-20T08:30:09;3.80;;;1.40;;
74328;SDS011;62745;51.060;13.786;2023-12-20T08:32:35;3.53;;;1.48;;
74328;SDS011;62745;51.060;13.786;2023-12-20T08:35:00;3.40;;;1.50;;
74328;SDS011;62745;51.060;13.786;2023-12-20T08:37:25;2.93;;;1.27;;
74328;SDS011;62745;51.060;13.786;2023-12-20T08:39:51;3.90;;;1.33;;
74328;SDS011;62745;51.060;13.786;2023-12-20T08:42:16;4.93;;;1.50;;
74328;SDS011;62745;51.060;13.786;2023-12-20T08:44:41;2.90;;;1.50;;
74328;SDS011;62745;51.060;13.786;2023-12-20T08:47:07;2.63;;;1.20;;
74328;SDS011;62745;51.060;13.786;2023-12-20T08:49:32;4.05;;;1.40;;
74328;SDS011;62745;51.060;13.786;2023-12-20T08:51:58;3.70;;;1.40;;
74328;SDS011;62745;51.060;13.786;2023-12-20T08:54:23;3.65;;;1.50;;
74328;SDS011;62745;51.060;13.786;2023-12-20T08:56:49;2.97;;;1.27;;
74328;SDS011;62745;51.060;13.786;2023-12-20T08:59:14;3.95;;;1.23;;
74328;SDS011;62745;51.060;13.786;2023-12-20T09:01:40;4.97;;;1.30;;
74328;SDS011;62745;51.060;13.786;2023-12-20T09:04:05;2.77;;;1.07;;
74328;SDS011;62745;51.060;13.786;2023-12-20T09:06:31;3.85;;;1.00;;
74328;SDS011;62745;51.060;13.786;2023-12-20T09:08:56;2.33;;;0.80;;
74328;SDS011;62745;51.060;13.786;2023-12-20T09:11:22;4.57;;;1.30;;
74328;SDS011;62745;51.060;13.786;2023-12-20T09:13:47;3.33;;;1.03;;
74328;SDS011;62745;51.060;13.786;2023-12-20T09:16:12;3.70;;;1.25;;
74328;SDS011;62745;51.060;13.786;2023-12-20T09:18:38;3.08;;;1.02;;
74328;SDS011;62745;51.060;13.786;2023-12-20T09:21:04;3.00;;;1.05;;
74328;SDS011;62745;51.060;13.786;2023-12-20T09:23:29;3.00;;;1.10;;
74328;SDS011;62745;51.060;13.786;2023-12-20T09:25:54;4.75;;;1.13;;
74328;SDS011;62745;51.060;13.786;2023-12-20T09:28:20;3.35;;;0.90;;
74328;SDS011;62745;51.060;13.786;2023-12-20T09:30:45;3.72;;;0.90;;
74328;SDS011;62745;51.060;13.786;2023-12-20T09:33:11;3.80;;;1.40;;
74328;SDS011;62745;51.060;13.786;2023-12-20T09:35:37;5.78;;;1.15;;
74328;SDS011;62745;51.060;13.786;2023-12-20T09:38:02;3.08;;;0.95;;
74328;SDS011;62745;51.060;13.786;2023-12-20T09:40:27;2.55;;;1.15;;
74328;SDS011;62745;51.060;13.786;2023-12-20T09:42:58;2.45;;;0.93;;
74328;SDS011;62745;51.060;13.786;2023-12-20T09:45:28;2.85;;;1.35;;
74328;SDS011;62745;51.060;13.786;2023-12-20T09:47:56;4.82;;;1.27;;
74328;SDS011;62745;51.060;13.786;2023-12-20T09:50:22;2.28;;;1.10;;
74328;SDS011;62745;51.060;13.786;2023-12-20T09:52:51;3.53;;;1.13;;
74328;SDS011;62745;51.060;13.786;2023-12-20T09:55:18;5.15;;;1.10;;
74328;SDS011;62745;51.060;13.786;2023-12-20T09:57:44;2.58;;;1.05;;
74328;SDS011;62745;51.060;13.786;2023-12-20T10:00:10;5.07;;;1.20;;
74328;SDS011;62745;51.060;13.786;2023-12-20T10:02:36;3.97;;;1.20;;
74328;SDS011;62745;51.060;13.786;2023-12-20T10:05:07;3.10;;;1.13;;
74328;SDS011;62745;51.060;13.786;2023-12-20T10:07:34;2.65;;;1.20;;
74328;SDS011;62745;51.060;13.786;2023-12-20T10:10:00;3.85;;;1.42;;
74328;SDS011;62745;51.060;13.786;2023-12-20T10:12:27;2.63;;;1.02;;
74328;SDS011;62745;51.060;13.786;2023-12-20T10:14:52;5.77;;;1.70;;
74328;SDS011;62745;51.060;13.786;2023-12-20T10:17:17;3.97;;;1.07;;
74328;SDS011;62745;51.060;13.786;2023-12-20T10:19:43;2.13;;;0.88;;
74328;SDS011;62745;51.060;13.786;2023-12-20T10:22:08;2.92;;;1.10;;
74328;SDS011;62745;51.060;13.786;2023-12-20T10:24:35;3.88;;;1.20;;
74328;SDS011;62745;51.060;13.786;2023-12-20T10:29:36;3.63;;;1.20;;
74328;SDS011;62745;51.060;13.786;2023-12-20T10:32:21;3.45;;;1.13;;
74328;SDS011;62745;51.060;13.786;2023-12-20T10:34:47;3.10;;;1.10;;
74328;SDS011;62745;51.060;13.786;2023-12-20T10:37:12;2.90;;;1.30;;
74328;SDS011;62745;51.060;13.786;2023-12-20T10:39:37;4.77;;;1.27;;
74328;SDS011;62745;51.060;13.786;2023-12-20T10:42:04;3.97;;;1.15;;
74328;SDS011;62745;51.060;13.786;2023-12-20T10:44:30;4.65;;;0.93;;
74328;SDS011;62745;51.060;13.786;2023-12-20T10:46:55;5.70;;;1.30;;
74328;SDS011;62745;51.060;13.786;2023-12-20T10:49:23;4.13;;;1.20;;
74328;SDS011;62745;51.060;13.786;2023-12-20T10:51:51;6.75;;;1.20;;
74328;SDS011;62745;51.060;13.786;2023-12-20T10:54:19;3.95;;;1.23;;
74328;SDS011;62745;51.060;13.786;2023-12-20T10:56:44;5.70;;;1.20;;
74328;SDS011;62745;51.060;13.786;2023-12-20T10:59:11;4.97;;;1.70;;
74328;SDS011;62745;51.060;13.786;2023-12-20T11:01:36;5.68;;;1.42;;
74328;SDS011;62745;51.060;13.786;2023-12-20T11:04:05;5.85;;;1.80;;
74328;SDS011;62745;51.060;13.786;2023-12-20T11:06:36;3.30;;;1.10;;
74328;SDS011;62745;51.060;13.786;2023-12-20T11:09:17;5.00;;;1.52;;
74328;SDS011;62745;51.060;13.786;2023-12-20T11:14:41;5.97;;;1.10;;
74328;SDS011;62745;51.060;13.786;2023-12-20T11:17:11;3.95;;;1.10;;
74328;SDS011;62745;51.060;13.786;2023-12-20T11:22:22;3.25;;;1.25;;
74328;SDS011;62745;51.060;13.786;2023-12-20T11:24:51;4.30;;;1.30;;
74328;SDS011;62745;51.060;13.786;2023-12-20T11:27:18;4.28;;;1.17;;
74328;SDS011;62745;51.060;13.786;2023-12-20T11:29:51;4.80;;;1.15;;
74328;SDS011;62745;51.060;13.786;2023-12-20T11:34:48;5.43;;;1.20;;
74328;SDS011;62745;51.060;13.786;2023-12-20T11:37:15;5.03;;;1.13;;
74328;SDS011;62745;51.060;13.786;2023-12-20T11:39:41;3.83;;;1.10;;
74328;SDS011;62745;51.060;13.786;2023-12-20T11:42:08;4.82;;;1.27;;
74328;SDS011;62745;51.060;13.786;2023-12-20T11:44:36;3.78;;;1.10;;
74328;SDS011;62745;51.060;13.786;2023-12-20T11:47:02;5.30;;;1.38;;
74328;SDS011;62745;51.060;13.786;2023-12-20T11:49:27;3.85;;;1.17;;
74328;SDS011;62745;51.060;13.786;2023-12-20T11:51:55;5.63;;;1.50;;
74328;SDS011;62745;51.060;13.786;2023-12-20T11:54:21;4.57;;;1.25;;
74328;SDS011;62745;51.060;13.786;2023-12-20T11:56:47;5.20;;;1.52;;
74328;SDS011;62745;51.060;13.786;2023-12-20T11:59:13;4.40;;;1.38;;
74328;SDS011;62745;51.060;13.786;2023-12-20T12:01:38;6.05;;;1.20;;
74328;SDS011;62745;51.060;13.786;2023-12-20T12:04:04;2.63;;;1.17;;
74328;SDS011;62745;51.060;13.786;2023-12-20T12:06:30;1.70;;;0.90;;
74328;SDS011;62745;51.060;13.786;2023-12-20T12:08:55;3.40;;;1.00;;
74328;SDS011;62745;51.060;13.786;2023-12-20T12:11:20;3.37;;;1.03;;
74328;SDS011;62745;51.060;13.786;2023-12-20T12:13:46;2.78;;;1.13;;
74328;SDS011;62745;51.060;13.786;2023-12-20T12:16:12;5.20;;;1.25;;
74328;SDS011;62745;51.060;13.786;2023-12-20T12:18:37;4.57;;;1.30;;
74328;SDS011;62745;51.060;13.786;2023-12-20T12:21:02;3.33;;;1.07;;
74328;SDS011;62745;51.060;13.786;2023-12-20T12:23:28;5.07;;;1.33;;
74328;SDS011;62745;51.060;13.786;2023-12-20T12:25:53;2.40;;;0.70;;
74328;SDS011;62745;51.060;13.786;2023-12-20T12:28:20;1.95;;;0.73;;
74328;SDS011;62745;51.060;13.786;2023-12-20T12:30:58;4.40;;;1.50;;
74328;SDS011;62745;51.060;13.786;2023-12-20T12:33:26;4.00;;;1.13;;
74328;SDS011;62745;51.060;13.786;2023-12-20T12:35:52;4.70;;;1.25;;
74328;SDS011;62745;51.060;13.786;2023-12-20T12:38:21;2.80;;;1.00;;
74328;SDS011;62745;51.060;13.786;2023-12-20T12:40:47;2.65;;;0.80;;
74328;SDS011;62745;51.060;13.786;2023-12-20T12:43:12;6.57;;;1.30;;
74328;SDS011;62745;51.060;13.786;2023-12-20T12:45:37;3.65;;;1.40;;
74328;SDS011;62745;51.060;13.786;2023-12-20T12:48:03;3.95;;;1.80;;
74328;SDS011;62745;51.060;13.786;2023-12-20T12:50:28;3.00;;;1.10;;
74328;SDS011;62745;51.060;13.786;2023-12-20T12:52:55;1.98;;;0.98;;
74328;SDS011;62745;51.060;13.786;2023-12-20T12:55:20;3.87;;;1.60;;
74328;SDS011;62745;51.060;13.786;2023-12-20T12:57:45;4.07;;;1.50;;
74328;SDS011;62745;51.060;13.786;2023-12-20T13:00:11;3.07;;;0.90;;
74328;SDS011;62745;51.060;13.786;2023-12-20T13:02:36;4.80;;;1.10;;
74328;SDS011;62745;51.060;13.786;2023-12-20T13:05:03;2.65;;;0.93;;
74328;SDS011;62745;51.060;13.786;2023-12-20T13:07:29;2.83;;;1.40;;
74328;SDS011;62745;51.060;13.786;2023-12-20T13:09:54;2.97;;;1.23;;
74328;SDS011;62745;51.060;13.786;2023-12-20T13:12:20;5.50;;;1.50;;
74328;SDS011;62745;51.060;13.786;2023-12-20T13:14:46;9.90;;;1.48;;
74328;SDS011;62745;51.060;13.786;2023-12-20T13:17:12;4.38;;;1.52;;
74328;SDS011;62745;51.060;13.786;2023-12-20T13:19:37;2.88;;;1.00;;
74328;SDS011;62745;51.060;13.786;2023-12-20T13:22:02;4.00;;;1.58;;
74328;SDS011;62745;51.060;13.786;2023-12-20T13:24:28;5.63;;;1.60;;
74328;SDS011;62745;51.060;13.786;2023-12-20T13:26:54;4.00;;;0.90;;
74328;SDS011;62745;51.060;13.786;2023-12-20T13:29:19;3.75;;;1.30;;
74328;SDS011;62745;51.060;13.786;2023-12-20T13:31:45;5.47;;;1.50;;
74328;SDS011;62745;51.060;13.786;2023-12-20T13:34:10;5.00;;;1.67;;
74328;SDS011;62745;51.060;13.786;2023-12-20T13:36:36;3.00;;;1.10;;
74328;SDS011;62745;51.060;13.786;2023-12-20T13:39:02;5.40;;;1.38;;
74328;SDS011;62745;51.060;13.786;2023-12-20T13:41:29;5.32;;;2.05;;
74328;SDS011;62745;51.060;13.786;2023-12-20T13:43:55;3.70;;;1.30;;
74328;SDS011;62745;51.060;13.786;2023-12-20T13:46:20;4.37;;;0.90;;
74328;SDS011;62745;51.060;13.786;2023-12-20T13:48:45;4.57;;;2.03;;
74328;SDS011;62745;51.060;13.786;2023-12-20T13:51:11;5.65;;;1.55;;
74328;SDS011;62745;51.060;13.786;2023-12-20T13:53:36;4.83;;;1.10;;
74328;SDS011;62745;51.060;13.786;2023-12-20T13:56:01;5.55;;;1.48;;
74328;SDS011;62745;51.060;13.786;2023-12-20T13:58:29;4.68;;;1.10;;
74328;SDS011;62745;51.060;13.786;2023-12-20T14:00:55;3.03;;;1.02;;
74328;SDS011;62745;51.060;13.786;2023-12-20T14:03:21;3.93;;;1.03;;
74328;SDS011;62745;51.060;13.786;2023-12-20T14:05:46;4.73;;;1.57;;
74328;SDS011;62745;51.060;13.786;2023-12-20T14:08:11;3.90;;;0.93;;
74328;SDS011;62745;51.060;13.786;2023-12-20T14:10:36;3.13;;;1.10;;
74328;SDS011;62745;51.060;13.786;2023-12-20T14:13:03;3.90;;;1.08;;
74328;SDS011;62745;51.060;13.786;2023-12-20T14:15:30;3.53;;;1.05;;
74328;SDS011;62745;51.060;13.786;2023-12-20T14:17:55;4.15;;;1.35;;
74328;SDS011;62745;51.060;13.786;2023-12-20T14:20:21;3.47;;;1.00;;
74328;SDS011;62745;51.060;13.786;2023-12-20T14:22:46;5.07;;;1.30;;
74328;SDS011;62745;51.060;13.786;2023-12-20T14:25:11;2.97;;;1.00;;
74328;SDS011;62745;51.060;13.786;2023-12-20T14:27:38;5.18;;;1.10;;
74328;SDS011;62745;51.060;13.786;2023-12-20T14:30:04;5.05;;;1.20;;
74328;SDS011;62745;51.060;13.786;2023-12-20T14:32:30;2.58;;;0.95;;
74328;SDS011;62745;51.060;13.786;2023-12-20T14:34:56;4.25;;;1.30;;